Time;durP1;ratioP1;P1;durP2;ratioP2;P2;SDS_P1;SDS_P2;PMS_P1;PMS_P2;Temp;Humidity;BMP_temperature;BMP_pressure;BME280_temperature;BME280_humidity;BME280_pressure;Samples;Min_cycle;Max_cycle;Signal;HPM_P1;HPM_P2
2024/03/18 00:02:01;;;;;;;18.52;7.05;;;9.40;99.90;;;;;;5062724;28;20055;-62
2024/03/18 00:04:27;;;;;;;18.38;7.18;;;9.30;99.90;;;;;;5058837;28;20021;-61
2024/03/18 00:06:52;;;;;;;21.35;8.10;;;9.40;99.90;;;;;;5065053;28;20427;-61
2024/03/18 00:09:18;;;;;;;16.92;7.35;;;9.40;99.90;;;;;;5058514;28;20538;-60
2024/03/18 00:11:44;;;;;;;18.33;7.88;;;9.30;99.90;;;;;;5058269;28;20456;-61
2024/03/18 00:14:09;;;;;;;18.65;8.07;;;9.20;99.90;;;;;;5056037;28;20028;-60
2024/03/18 00:16:35;;;;;;;17.67;7.97;;;9.30;99.90;;;;;;5056184;28;20392;-60
2024/03/18 00:19:01;;;;;;;17.42;7.60;;;9.20;99.90;;;;;;5060797;28;20074;-60
2024/03/18 00:21:27;;;;;;;17.45;7.35;;;9.20;99.90;;;;;;5058370;28;20460;-60
2024/03/18 00:23:52;;;;;;;15.77;7.10;;;9.10;99.90;;;;;;5061915;28;20025;-60
2024/03/18 00:26:18;;;;;;;21.00;8.45;;;9.20;99.90;;;;;;5056911;28;20476;-59
2024/03/18 00:28:43;;;;;;;16.85;7.85;;;9.20;99.90;;;;;;5061030;28;20021;-60
2024/03/18 00:31:10;;;;;;;16.58;7.05;;;9.10;99.90;;;;;;5061082;28;20150;-60
2024/03/18 00:33:36;;;;;;;19.85;7.97;;;9.10;99.90;;;;;;5059517;28;20695;-60
2024/03/18 00:36:02;;;;;;;19.77;9.13;;;9.10;99.90;;;;;;5061233;28;20465;-60
2024/03/18 00:38:28;;;;;;;18.20;7.00;;;9.10;99.90;;;;;;5057001;28;20040;-60
2024/03/18 00:43:38;;;;;;;17.70;8.20;;;9.10;99.90;;;;;;5059982;28;20078;-60
2024/03/18 00:46:04;;;;;;;19.63;8.93;;;9.00;99.90;;;;;;5060089;28;20435;-60
2024/03/18 00:48:30;;;;;;;19.08;8.32;;;9.00;99.90;;;;;;5058886;28;20029;-60
2024/03/18 00:50:56;;;;;;;19.77;8.48;;;9.00;99.90;;;;;;5063925;28;20396;-60
2024/03/18 00:53:22;;;;;;;19.58;9.05;;;9.00;99.90;;;;;;5058413;28;20025;-60
2024/03/18 00:55:47;;;;;;;20.33;9.13;;;9.00;99.90;;;;;;5059842;28;20025;-60
2024/03/18 00:58:13;;;;;;;15.82;7.75;;;8.90;99.90;;;;;;5062116;28;20037;-60
2024/03/18 01:00:39;;;;;;;21.58;9.50;;;9.00;99.90;;;;;;5061018;28;20035;-59
2024/03/18 01:03:04;;;;;;;21.45;8.70;;;9.00;99.90;;;;;;5059570;28;20021;-59
2024/03/18 01:05:30;;;;;;;22.40;9.63;;;9.00;99.90;;;;;;5059115;28;20029;-60
2024/03/18 01:07:59;;;;;;;20.92;10.10;;;9.00;99.90;;;;;;5059801;28;20426;-60
2024/03/18 01:10:24;;;;;;;19.98;9.00;;;8.90;99.90;;;;;;5059088;28;20383;-60
2024/03/18 01:12:50;;;;;;;25.17;10.43;;;8.90;99.90;;;;;;5059326;28;20127;-60
2024/03/18 01:15:16;;;;;;;23.77;10.63;;;8.80;99.90;;;;;;5058740;28;20468;-60
2024/03/18 01:17:42;;;;;;;21.77;9.85;;;8.80;99.90;;;;;;5063335;28;20063;-60
2024/03/18 01:20:15;;;;;;;23.77;10.05;;;8.80;99.90;;;;;;5062975;28;20032;-60
2024/03/18 01:22:42;;;;;;;23.92;10.50;;;8.80;99.90;;;;;;5064821;28;20019;-60
2024/03/18 01:25:13;;;;;;;25.70;10.95;;;8.80;99.90;;;;;;5062799;28;20029;-60
2024/03/18 01:27:39;;;;;;;29.10;11.02;;;8.70;99.90;;;;;;5064103;28;20028;-61
2024/03/18 01:30:10;;;;;;;26.27;10.60;;;8.70;99.90;;;;;;5063137;28;20035;-60
2024/03/18 01:32:35;;;;;;;21.77;10.52;;;8.70;99.90;;;;;;5064644;28;20056;-61
2024/03/18 01:35:01;;;;;;;24.73;10.82;;;8.60;99.90;;;;;;5063796;28;20434;-60
2024/03/18 01:37:26;;;;;;;25.48;11.32;;;8.70;99.90;;;;;;5068243;28;20112;-60
2024/03/18 01:39:52;;;;;;;25.25;10.90;;;8.70;99.90;;;;;;5061867;28;20108;-60
2024/03/18 01:42:18;;;;;;;25.25;11.48;;;8.70;99.90;;;;;;5065090;28;20751;-60
2024/03/18 01:44:54;;;;;;;25.15;10.80;;;8.60;99.90;;;;;;5061299;28;20033;-60
2024/03/18 01:47:21;;;;;;;24.88;10.55;;;8.60;99.90;;;;;;5062320;28;20025;-60
2024/03/18 01:49:49;;;;;;;23.60;10.88;;;8.60;99.90;;;;;;5064349;28;20156;-60
2024/03/18 01:52:17;;;;;;;21.77;10.07;;;8.60;99.90;;;;;;5061842;28;20028;-60
2024/03/18 01:54:43;;;;;;;22.02;10.68;;;8.60;99.90;;;;;;5062607;28;20434;-61
2024/03/18 01:57:09;;;;;;;28.08;10.85;;;8.70;99.90;;;;;;5064695;28;20067;-60
2024/03/18 01:59:35;;;;;;;28.75;12.07;;;8.60;99.90;;;;;;5060837;28;20033;-61
2024/03/18 02:02:01;;;;;;;23.80;10.35;;;8.60;99.90;;;;;;5071207;28;20020;-61
2024/03/18 02:04:27;;;;;;;26.98;11.40;;;8.60;99.90;;;;;;5063003;28;20111;-60
2024/03/18 02:06:54;;;;;;;23.73;10.93;;;8.70;99.90;;;;;;5060545;28;20532;-60
2024/03/18 02:09:20;;;;;;;25.08;10.95;;;8.70;99.90;;;;;;5063856;28;20032;-60
2024/03/18 02:11:46;;;;;;;25.58;11.77;;;8.60;99.90;;;;;;5059471;28;20047;-59
2024/03/18 02:14:15;;;;;;;27.85;11.50;;;8.70;99.90;;;;;;5064858;28;20025;-60
2024/03/18 02:16:42;;;;;;;28.85;11.57;;;8.70;99.90;;;;;;5059209;28;20037;-60
2024/03/18 02:19:09;;;;;;;25.15;11.18;;;8.60;99.90;;;;;;5060716;28;20055;-60
2024/03/18 02:21:35;;;;;;;24.77;10.68;;;8.70;99.90;;;;;;5063328;28;20025;-60
2024/03/18 02:24:03;;;;;;;24.48;10.77;;;8.60;99.90;;;;;;5062544;28;20036;-61
2024/03/18 02:26:30;;;;;;;28.15;11.23;;;8.60;99.90;;;;;;5061152;28;20074;-60
2024/03/18 02:28:56;;;;;;;29.30;11.68;;;8.60;99.90;;;;;;5060733;28;20029;-60
2024/03/18 02:31:22;;;;;;;26.60;11.70;;;8.60;99.90;;;;;;5068214;28;20571;-60
2024/03/18 02:33:47;;;;;;;30.67;11.13;;;8.60;99.90;;;;;;5060840;28;20112;-60
2024/03/18 02:36:13;;;;;;;30.00;12.48;;;8.60;99.90;;;;;;5067518;28;20363;-60
2024/03/18 02:38:39;;;;;;;28.40;12.23;;;8.60;99.90;;;;;;5060255;28;20029;-60
2024/03/18 02:41:04;;;;;;;30.90;12.52;;;8.60;99.90;;;;;;5063642;28;20035;-60
2024/03/18 02:43:30;;;;;;;33.13;12.68;;;8.60;99.90;;;;;;5061748;28;20032;-61
2024/03/18 02:45:55;;;;;;;28.17;11.75;;;8.50;99.90;;;;;;5061676;28;20116;-60
2024/03/18 02:48:24;;;;;;;25.83;11.52;;;8.60;99.90;;;;;;5060757;28;20029;-60
2024/03/18 02:50:51;;;;;;;26.45;10.60;;;8.50;99.90;;;;;;5065294;28;20058;-60
2024/03/18 02:53:16;;;;;;;27.42;9.77;;;8.60;99.90;;;;;;5062522;28;20036;-60
2024/03/18 02:55:42;;;;;;;26.52;10.88;;;8.60;99.90;;;;;;5062848;28;20029;-60
2024/03/18 02:58:08;;;;;;;26.30;11.07;;;8.60;99.90;;;;;;5064060;28;20037;-60
2024/03/18 03:00:34;;;;;;;31.30;12.43;;;8.50;99.90;;;;;;5070160;28;20029;-59
2024/03/18 03:02:59;;;;;;;27.25;10.52;;;8.60;99.90;;;;;;5063230;28;20457;-60
2024/03/18 03:05:25;;;;;;;33.25;12.43;;;8.50;99.90;;;;;;5061738;28;20074;-60
2024/03/18 03:07:51;;;;;;;24.45;10.45;;;8.60;99.90;;;;;;5059867;28;20087;-60
2024/03/18 03:10:17;;;;;;;30.70;12.32;;;8.60;99.90;;;;;;5062322;28;20111;-60
2024/03/18 03:12:43;;;;;;;31.52;12.60;;;8.60;99.90;;;;;;5059053;28;20032;-60
2024/03/18 03:15:09;;;;;;;30.20;12.45;;;8.60;99.90;;;;;;5063120;28;20472;-59
2024/03/18 03:17:35;;;;;;;26.02;11.73;;;8.60;99.90;;;;;;5059730;28;20031;-60
2024/03/18 03:20:03;;;;;;;28.63;10.88;;;8.60;99.90;;;;;;5061630;28;20123;-60
2024/03/18 03:22:28;;;;;;;28.50;10.13;;;8.60;99.90;;;;;;5061113;28;20024;-59
2024/03/18 03:24:54;;;;;;;26.73;10.98;;;8.60;99.90;;;;;;5064457;28;20028;-59
2024/03/18 03:27:21;;;;;;;23.15;8.95;;;8.70;99.90;;;;;;5058752;28;20111;-59
2024/03/18 03:29:46;;;;;;;27.10;11.43;;;8.70;99.90;;;;;;5063671;28;20082;-59
2024/03/18 03:32:14;;;;;;;30.88;12.95;;;8.70;99.90;;;;;;5067781;28;20028;-60
2024/03/18 03:34:40;;;;;;;36.70;11.98;;;8.70;99.90;;;;;;5058926;28;20119;-60
2024/03/18 03:37:07;;;;;;;26.55;11.50;;;8.60;99.90;;;;;;5064558;28;20408;-60
2024/03/18 03:39:35;;;;;;;27.15;10.05;;;8.80;99.90;;;;;;5060873;28;20296;-61
2024/03/18 03:42:01;;;;;;;21.73;8.63;;;8.70;99.90;;;;;;5065040;28;20021;-61
2024/03/18 03:44:28;;;;;;;27.50;11.38;;;8.70;99.90;;;;;;5064231;28;20434;-61
2024/03/18 03:46:55;;;;;;;30.60;10.30;;;8.70;99.90;;;;;;5061720;28;20055;-61
2024/03/18 03:49:20;;;;;;;27.45;11.30;;;8.70;99.90;;;;;;5064441;28;20052;-61
2024/03/18 03:51:46;;;;;;;28.27;10.68;;;8.60;99.90;;;;;;5061399;28;20044;-61
2024/03/18 03:54:13;;;;;;;23.23;9.57;;;8.60;99.90;;;;;;5067203;28;20078;-61
2024/03/18 03:56:39;;;;;;;25.63;10.90;;;8.70;99.90;;;;;;5061755;28;20024;-61
2024/03/18 03:59:04;;;;;;;28.00;10.80;;;8.70;99.90;;;;;;5060064;28;20109;-61
2024/03/18 04:01:30;;;;;;;24.63;10.27;;;8.70;99.90;;;;;;5071347;28;20456;-61
2024/03/18 04:03:56;;;;;;;27.63;10.60;;;8.70;99.90;;;;;;5064345;28;20442;-62
2024/03/18 04:06:22;;;;;;;25.92;11.00;;;8.70;99.90;;;;;;5062565;28;20029;-61
2024/03/18 04:08:48;;;;;;;24.65;10.30;;;8.60;99.90;;;;;;5059529;28;20040;-61
2024/03/18 04:11:13;;;;;;;26.08;11.05;;;8.60;99.90;;;;;;5061484;28;20070;-62
2024/03/18 04:13:39;;;;;;;24.42;9.95;;;8.60;99.90;;;;;;5062751;28;20024;-61
2024/03/18 04:16:05;;;;;;;24.77;10.50;;;8.60;99.90;;;;;;5059750;28;20040;-61
2024/03/18 04:18:31;;;;;;;27.35;10.75;;;8.60;99.90;;;;;;5063206;28;20020;-61
2024/03/18 04:20:59;;;;;;;20.98;8.15;;;8.60;99.90;;;;;;5059607;28;20140;-61
2024/03/18 04:23:28;;;;;;;24.80;10.10;;;8.70;99.90;;;;;;5061934;28;20025;-61
2024/03/18 04:25:53;;;;;;;26.08;10.60;;;8.70;99.90;;;;;;5058351;28;20028;-61
2024/03/18 04:28:19;;;;;;;24.08;9.85;;;8.70;99.90;;;;;;5062254;28;20029;-61
2024/03/18 04:30:44;;;;;;;27.60;10.93;;;8.70;99.90;;;;;;5063141;28;20111;-61
2024/03/18 04:33:10;;;;;;;27.58;9.90;;;8.70;99.90;;;;;;5062401;28;20036;-61
2024/03/18 04:35:36;;;;;;;21.67;9.57;;;8.70;99.90;;;;;;5061995;28;20500;-61
2024/03/18 04:38:01;;;;;;;28.08;10.40;;;8.70;99.90;;;;;;5062540;28;20025;-61
2024/03/18 04:40:27;;;;;;;23.45;9.20;;;8.70;99.90;;;;;;5059197;28;20033;-61
2024/03/18 04:42:54;;;;;;;26.13;10.48;;;8.70;99.90;;;;;;5058910;28;20021;-62
2024/03/18 04:45:21;;;;;;;22.08;9.68;;;8.70;99.90;;;;;;5061681;28;20033;-62
2024/03/18 04:47:49;;;;;;;23.08;8.95;;;8.70;99.90;;;;;;5059842;28;20047;-60
2024/03/18 04:50:18;;;;;;;25.33;9.02;;;8.70;99.90;;;;;;5060100;28;20082;-60
2024/03/18 04:52:44;;;;;;;23.08;9.48;;;8.70;99.90;;;;;;5059711;28;20108;-59
2024/03/18 04:55:11;;;;;;;19.13;7.95;;;8.80;99.90;;;;;;5060282;28;20511;-60
2024/03/18 04:57:37;;;;;;;20.63;9.05;;;8.80;99.90;;;;;;5062990;28;20119;-60
2024/03/18 05:00:11;;;;;;;20.20;8.05;;;8.80;99.90;;;;;;5061327;28;20086;-60
2024/03/18 05:02:38;;;;;;;22.10;7.63;;;8.80;99.90;;;;;;5060601;28;20033;-60
2024/03/18 05:05:04;;;;;;;20.83;7.80;;;8.80;99.90;;;;;;5061509;28;20049;-60
2024/03/18 05:07:30;;;;;;;20.58;7.38;;;8.70;99.90;;;;;;5060284;28;20036;-60
2024/03/18 05:09:56;;;;;;;24.58;9.93;;;8.70;99.90;;;;;;5058060;28;20036;-60
2024/03/18 05:12:21;;;;;;;20.38;9.02;;;8.80;99.90;;;;;;5061149;28;20039;-60
2024/03/18 05:14:50;;;;;;;19.40;8.00;;;8.80;99.90;;;;;;5058710;28;20048;-60
2024/03/18 05:17:16;;;;;;;19.15;7.80;;;8.80;99.90;;;;;;5060669;28;20094;-61
2024/03/18 05:19:42;;;;;;;17.55;7.50;;;8.80;99.90;;;;;;5059130;28;20048;-59
2024/03/18 05:22:08;;;;;;;23.88;8.98;;;8.80;99.90;;;;;;5057083;28;20025;-60
2024/03/18 05:24:33;;;;;;;18.20;8.05;;;8.80;99.90;;;;;;5056732;28;20029;-60
2024/03/18 05:27:00;;;;;;;17.52;7.63;;;8.70;99.90;;;;;;5054346;28;20541;-60
2024/03/18 05:29:26;;;;;;;19.63;7.70;;;8.80;99.90;;;;;;5061487;28;20146;-60
2024/03/18 05:31:52;;;;;;;19.63;7.80;;;8.80;99.90;;;;;;5061933;28;20103;-60
2024/03/18 05:34:18;;;;;;;17.40;7.85;;;8.80;99.90;;;;;;5061206;28;20029;-60
2024/03/18 05:36:43;;;;;;;22.55;8.43;;;8.70;99.90;;;;;;5061284;28;20055;-60
2024/03/18 05:39:10;;;;;;;21.65;8.75;;;8.70;99.90;;;;;;5060568;28;20036;-60
2024/03/18 05:41:35;;;;;;;18.50;7.50;;;8.70;99.90;;;;;;5057841;28;20013;-60
2024/03/18 05:44:02;;;;;;;18.20;8.35;;;8.70;99.90;;;;;;5051672;28;20021;-60
2024/03/18 05:46:27;;;;;;;20.90;8.27;;;8.60;99.90;;;;;;5055742;28;20055;-59
2024/03/18 05:48:53;;;;;;;20.00;8.82;;;8.50;99.90;;;;;;5058703;28;20348;-60
2024/03/18 05:51:19;;;;;;;22.48;9.35;;;8.50;99.90;;;;;;5053467;28;20028;-61
2024/03/18 05:53:44;;;;;;;22.33;9.75;;;8.40;99.90;;;;;;5048561;28;20056;-60
2024/03/18 05:56:11;;;;;;;22.65;9.70;;;8.30;99.90;;;;;;5056089;28;20047;-60
2024/03/18 05:58:39;;;;;;;21.75;9.80;;;8.30;99.90;;;;;;5061816;28;20025;-62
2024/03/18 06:01:10;;;;;;;23.70;8.55;;;8.20;99.90;;;;;;5060926;28;20042;-62
2024/03/18 06:03:37;;;;;;;20.55;9.50;;;8.30;99.90;;;;;;5059074;28;20013;-62
2024/03/18 06:06:04;;;;;;;21.13;8.85;;;8.40;99.90;;;;;;5063589;28;20051;-62
2024/03/18 06:08:29;;;;;;;21.95;9.00;;;8.50;99.90;;;;;;5060578;28;20432;-62
2024/03/18 06:10:56;;;;;;;20.83;9.15;;;8.50;99.90;;;;;;5058899;28;20064;-62
2024/03/18 06:13:22;;;;;;;18.13;8.18;;;8.60;99.90;;;;;;5066057;28;20448;-62
2024/03/18 06:15:48;;;;;;;22.08;9.70;;;8.60;99.90;;;;;;5063499;28;20051;-62
2024/03/18 06:18:13;;;;;;;19.50;8.20;;;8.70;99.90;;;;;;5052958;28;20326;-63
2024/03/18 06:20:43;;;;;;;21.13;8.77;;;8.80;99.90;;;;;;5058628;28;20044;-62
2024/03/18 06:23:10;;;;;;;19.23;7.43;;;8.90;99.90;;;;;;5062869;28;20024;-62
2024/03/18 06:28:19;;;;;;;17.25;7.82;;;8.90;99.90;;;;;;5056203;28;20040;-63
2024/03/18 06:30:48;;;;;;;16.48;6.97;;;9.10;99.90;;;;;;5063162;28;20032;-62
2024/03/18 06:33:14;;;;;;;18.33;7.40;;;9.10;99.90;;;;;;5060093;28;20024;-64
2024/03/18 06:35:42;;;;;;;19.10;7.63;;;9.20;99.90;;;;;;5060749;28;20063;-63
2024/03/18 06:38:08;;;;;;;16.70;7.10;;;9.20;99.90;;;;;;5060524;28;20032;-63
2024/03/18 06:40:33;;;;;;;16.45;7.40;;;9.30;99.90;;;;;;5060401;28;20041;-63
2024/03/18 06:42:59;;;;;;;17.38;6.82;;;9.30;99.90;;;;;;5061053;28;20052;-63
2024/03/18 06:45:25;;;;;;;15.93;6.63;;;9.40;99.90;;;;;;5059451;28;20361;-62
2024/03/18 06:47:50;;;;;;;16.95;7.10;;;9.40;99.90;;;;;;5058890;28;20029;-63
2024/03/18 06:50:16;;;;;;;16.48;6.60;;;9.50;99.90;;;;;;5060183;28;20107;-62
2024/03/18 06:52:41;;;;;;;15.88;7.25;;;9.60;99.90;;;;;;5074668;28;20045;-63
2024/03/18 06:55:07;;;;;;;17.02;6.45;;;9.60;99.90;;;;;;5078022;28;20099;-63
2024/03/18 06:57:33;;;;;;;14.27;6.75;;;9.70;99.90;;;;;;5063589;28;20258;-62
2024/03/18 07:00:00;;;;;;;16.02;7.18;;;9.80;99.90;;;;;;5061503;28;20109;-63
2024/03/18 07:02:27;;;;;;;14.57;6.32;;;9.80;99.90;;;;;;5062125;28;20026;-63
2024/03/18 07:04:52;;;;;;;17.63;7.03;;;9.80;99.90;;;;;;5054753;28;20052;-63
2024/03/18 07:07:18;;;;;;;17.65;7.28;;;9.80;99.90;;;;;;5062334;28;20049;-62
2024/03/18 07:09:43;;;;;;;14.70;6.32;;;9.80;99.90;;;;;;5058010;28;20079;-62
2024/03/18 07:12:09;;;;;;;15.60;6.88;;;9.90;99.90;;;;;;5059646;28;20452;-62
2024/03/18 07:14:36;;;;;;;16.95;7.25;;;9.90;99.90;;;;;;5059187;28;20024;-62
2024/03/18 07:17:03;;;;;;;17.33;7.18;;;10.00;99.90;;;;;;5059361;28;20043;-62
2024/03/18 07:19:29;;;;;;;15.23;6.85;;;10.00;99.90;;;;;;5060131;28;20040;-61
2024/03/18 07:21:56;;;;;;;16.90;6.95;;;10.00;99.90;;;;;;5059193;28;20379;-62
2024/03/18 07:24:22;;;;;;;17.63;6.90;;;10.00;99.90;;;;;;5061123;28;20017;-62
2024/03/18 07:26:47;;;;;;;15.90;6.82;;;10.10;99.90;;;;;;5055434;28;20025;-62
2024/03/18 07:29:15;;;;;;;17.95;7.18;;;10.10;99.90;;;;;;5057788;28;20044;-62
2024/03/18 07:31:40;;;;;;;15.60;6.85;;;10.10;99.90;;;;;;5065951;28;20373;-61
2024/03/18 07:34:06;;;;;;;14.77;6.35;;;10.20;99.90;;;;;;5060097;28;20033;-61
2024/03/18 07:36:31;;;;;;;18.05;7.35;;;10.20;99.90;;;;;;5063760;28;20066;-62
2024/03/18 07:38:58;;;;;;;18.00;7.55;;;10.30;99.90;;;;;;5062121;28;20016;-61
2024/03/18 07:41:24;;;;;;;16.55;7.07;;;10.30;99.90;;;;;;5062326;28;20059;-62
2024/03/18 07:43:50;;;;;;;19.58;7.60;;;10.40;99.90;;;;;;5059478;28;20418;-62
2024/03/18 07:46:16;;;;;;;19.02;6.97;;;10.40;99.90;;;;;;5061952;28;20108;-61
2024/03/18 07:48:41;;;;;;;18.90;7.78;;;10.50;99.90;;;;;;5057134;28;20045;-62
2024/03/18 07:51:09;;;;;;;17.45;7.57;;;10.50;99.90;;;;;;5061119;28;20025;-62
2024/03/18 07:53:35;;;;;;;16.05;7.00;;;10.60;99.90;;;;;;5060562;28;20025;-62
2024/03/18 07:56:01;;;;;;;17.50;7.10;;;10.70;99.90;;;;;;5060541;28;20051;-62
2024/03/18 07:58:26;;;;;;;19.75;7.47;;;10.80;99.90;;;;;;5063545;28;20036;-62
2024/03/18 08:00:52;;;;;;;16.13;6.72;;;10.80;99.90;;;;;;5065309;28;20103;-62
2024/03/18 08:03:18;;;;;;;17.27;7.68;;;10.80;99.90;;;;;;5060477;28;20048;-62
2024/03/18 08:05:43;;;;;;;20.00;7.28;;;11.00;99.90;;;;;;5057408;28;20036;-61
2024/03/18 08:08:09;;;;;;;20.13;8.18;;;11.00;99.90;;;;;;5059807;28;20028;-62
2024/03/18 08:10:35;;;;;;;19.50;7.63;;;11.20;99.90;;;;;;5057862;28;20108;-62
2024/03/18 08:13:00;;;;;;;17.15;7.18;;;11.30;99.90;;;;;;5058874;28;20029;-62
2024/03/18 08:15:26;;;;;;;19.25;7.97;;;11.40;99.90;;;;;;5058471;28;20044;-62
2024/03/18 08:17:51;;;;;;;17.50;7.10;;;11.40;99.90;;;;;;5056456;28;20551;-61
2024/03/18 08:20:17;;;;;;;14.60;7.10;;;11.50;99.90;;;;;;5058050;28;20037;-62
2024/03/18 08:22:43;;;;;;;19.23;6.90;;;11.60;99.90;;;;;;5058842;28;20430;-62
2024/03/18 08:25:11;;;;;;;17.80;7.30;;;11.70;99.90;;;;;;5055857;28;20036;-62
2024/03/18 08:27:37;;;;;;;16.70;6.60;;;11.80;99.90;;;;;;5058954;28;20111;-62
2024/03/18 08:30:07;;;;;;;18.90;7.57;;;11.90;99.90;;;;;;5056903;28;20426;-62
2024/03/18 08:32:32;;;;;;;17.13;7.33;;;11.90;99.90;;;;;;5071605;28;20107;-62
2024/03/18 08:34:58;;;;;;;13.75;6.43;;;12.00;99.90;;;;;;5057435;28;20099;-62
2024/03/18 08:37:24;;;;;;;15.60;7.50;;;12.10;99.90;;;;;;5060977;28;20056;-62
2024/03/18 08:39:52;;;;;;;15.70;7.00;;;12.20;99.90;;;;;;5057596;28;20033;-62
2024/03/18 08:42:18;;;;;;;19.70;7.18;;;12.40;99.90;;;;;;5058773;28;20040;-62
2024/03/18 08:44:47;;;;;;;14.70;6.47;;;12.60;99.90;;;;;;5056549;28;20025;-62
2024/03/18 08:47:12;;;;;;;14.48;5.93;;;12.80;99.90;;;;;;5059519;28;20043;-62
2024/03/18 08:49:38;;;;;;;13.82;5.95;;;12.90;99.90;;;;;;5056596;28;20029;-62
2024/03/18 08:52:04;;;;;;;13.73;6.28;;;13.20;99.90;;;;;;5058745;28;20043;-62
2024/03/18 08:54:30;;;;;;;15.90;6.18;;;13.10;99.90;;;;;;5057151;28;20040;-62
2024/03/18 08:56:56;;;;;;;13.23;5.95;;;13.20;99.90;;;;;;5060357;28;20087;-62
2024/03/18 08:59:22;;;;;;;11.02;5.03;;;13.40;99.90;;;;;;5059755;28;20029;-62
2024/03/18 09:01:48;;;;;;;12.95;5.82;;;13.50;99.90;;;;;;5063261;28;20021;-62
2024/03/18 09:04:14;;;;;;;12.38;5.78;;;13.50;99.90;;;;;;5061027;28;20027;-62
2024/03/18 09:06:40;;;;;;;13.93;5.40;;;13.60;99.90;;;;;;5056804;28;20121;-62
2024/03/18 09:09:06;;;;;;;12.77;5.55;;;13.80;99.90;;;;;;5059555;28;20491;-62
2024/03/18 09:11:33;;;;;;;11.18;5.20;;;13.90;99.90;;;;;;5056932;28;20021;-62
2024/03/18 09:13:58;;;;;;;11.50;5.32;;;13.90;99.90;;;;;;5058374;28;20510;-62
2024/03/18 09:16:24;;;;;;;13.30;6.00;;;13.80;99.90;;;;;;5057392;28;20047;-62
2024/03/18 09:18:50;;;;;;;11.80;5.32;;;13.90;99.90;;;;;;5059453;28;20060;-62
2024/03/18 09:21:16;;;;;;;11.48;5.32;;;14.10;99.90;;;;;;5057285;28;20114;-61
2024/03/18 09:23:42;;;;;;;13.85;5.47;;;14.30;99.90;;;;;;5058948;28;20074;-62
2024/03/18 09:26:07;;;;;;;12.85;5.97;;;14.50;99.90;;;;;;5053837;28;20111;-61
2024/03/18 09:28:33;;;;;;;12.95;5.50;;;14.80;99.90;;;;;;5059368;28;20158;-62
2024/03/18 09:31:03;;;;;;;12.90;6.20;;;14.80;99.90;;;;;;5061513;28;20522;-62
2024/03/18 09:33:30;;;;;;;12.75;5.63;;;14.70;99.90;;;;;;5056566;28;20025;-63
2024/03/18 09:35:55;;;;;;;10.77;5.43;;;14.70;99.90;;;;;;5061559;28;20067;-63
2024/03/18 09:38:21;;;;;;;14.52;6.90;;;14.50;99.90;;;;;;5061432;28;20072;-62
2024/03/18 09:40:47;;;;;;;16.75;6.88;;;14.10;99.90;;;;;;5060095;28;20025;-62
2024/03/18 09:43:12;;;;;;;14.75;6.40;;;13.80;99.90;;;;;;5059005;28;20056;-63
2024/03/18 09:45:38;;;;;;;14.65;6.05;;;13.70;99.90;;;;;;5062434;28;20538;-62
2024/03/18 09:48:05;;;;;;;15.55;6.60;;;13.70;99.90;;;;;;5058225;28;20071;-63
2024/03/18 09:50:31;;;;;;;13.95;6.80;;;13.80;99.90;;;;;;5062608;28;20029;-62
2024/03/18 09:52:57;;;;;;;14.65;6.55;;;13.90;99.90;;;;;;5062637;28;20036;-62
2024/03/18 09:55:24;;;;;;;12.40;5.50;;;14.00;99.90;;;;;;5059738;28;20035;-62
2024/03/18 09:57:51;;;;;;;13.25;6.18;;;13.80;99.90;;;;;;5061331;28;20037;-62
2024/03/18 10:00:21;;;;;;;13.25;6.35;;;13.60;99.90;;;;;;5063176;28;20032;-63
2024/03/18 10:02:47;;;;;;;15.30;7.03;;;13.50;99.90;;;;;;5064041;28;20240;-63
2024/03/18 10:05:13;;;;;;;15.13;5.75;;;13.30;99.90;;;;;;5061445;28;20025;-62
2024/03/18 10:07:40;;;;;;;13.25;5.40;;;13.30;99.90;;;;;;5058607;28;20115;-62
2024/03/18 10:10:16;;;;;;;12.27;6.05;;;13.10;99.90;;;;;;5062406;28;20037;-62
2024/03/18 10:12:42;;;;;;;14.18;6.25;;;13.10;99.90;;;;;;5058201;28;20142;-62
2024/03/18 10:15:13;;;;;;;15.13;7.07;;;13.10;99.90;;;;;;5061736;28;20106;-62
2024/03/18 10:17:39;;;;;;;;;;;13.20;99.90;;;;;;5060505;28;20108;-62
2024/03/18 10:20:19;;;;;;;13.05;6.53;;;13.20;99.90;;;;;;5061839;28;20748;-62
2024/03/18 10:22:49;;;;;;;15.07;6.25;;;13.40;99.90;;;;;;5061008;28;20021;-63
2024/03/18 10:25:21;;;;;;;;;;;13.60;99.90;;;;;;5059817;28;20024;-62
2024/03/18 10:27:47;;;;;;;13.73;6.50;;;13.80;99.90;;;;;;5060130;28;19909;-62
2024/03/18 10:30:13;;;;;;;15.27;6.40;;;13.90;99.90;;;;;;5059584;28;20024;-62
2024/03/18 10:32:41;;;;;;;16.60;7.60;;;13.80;99.90;;;;;;5063749;28;20044;-62
2024/03/18 10:35:17;;;;;;;16.02;7.78;;;13.50;99.90;;;;;;5059428;28;20509;-62
2024/03/18 10:37:47;;;;;;;15.95;7.88;;;13.50;99.90;;;;;;5062545;28;20037;-62
2024/03/18 10:40:30;;;;;;;15.90;8.05;;;13.60;99.90;;;;;;5060624;28;20107;-63
2024/03/18 10:43:01;;;;;;;14.27;6.90;;;13.90;99.90;;;;;;5060016;28;20046;-62
2024/03/18 10:45:28;;;;;;;12.93;5.50;;;14.70;99.90;;;;;;5058703;28;20575;-62
2024/03/18 10:48:04;;;;;;;15.02;6.22;;;15.60;99.90;;;;;;5061074;28;20024;-63
2024/03/18 10:50:30;;;;;;;14.00;6.53;;;16.20;99.90;;;;;;5058312;28;20037;-62
2024/03/18 10:52:57;;;;;;;12.57;5.95;;;16.40;99.90;;;;;;5058477;28;20035;-62
2024/03/18 10:55:24;;;;;;;10.88;4.10;;;16.30;99.90;;;;;;5061738;28;20444;-63
2024/03/18 10:57:51;;;;;;;7.88;2.55;;;16.50;99.90;;;;;;5060450;28;20033;-62
2024/03/18 11:00:18;;;;;;;10.73;3.08;;;16.50;99.90;;;;;;5060867;28;20415;-63
2024/03/18 11:02:59;;;;;;;9.83;2.60;;;16.20;99.90;;;;;;5060519;28;20021;-62
2024/03/18 11:05:32;;;;;;;10.88;3.72;;;15.80;99.90;;;;;;5057049;28;20120;-62
2024/03/18 11:08:00;;;;;;;10.75;3.72;;;15.30;99.90;;;;;;5057969;28;20064;-62
2024/03/18 11:10:31;;;;;;;9.30;2.92;;;14.90;99.90;;;;;;5056621;28;20432;-62
2024/03/18 11:13:08;;;;;;;9.63;4.57;;;14.70;99.90;;;;;;5057498;28;20036;-63
2024/03/18 11:15:34;;;;;;;11.75;4.75;;;14.30;99.90;;;;;;5058465;28;20099;-62
2024/03/18 11:18:06;;;;;;;13.13;5.07;;;14.20;99.90;;;;;;5060740;28;20025;-63
2024/03/18 11:20:46;;;;;;;12.90;5.22;;;14.10;99.90;;;;;;5057477;28;20033;-62
2024/03/18 11:23:23;;;;;;;13.82;5.75;;;14.00;99.90;;;;;;5058276;28;20029;-62
2024/03/18 11:25:56;;;;;;;13.80;5.40;;;13.90;99.90;;;;;;5059076;28;20036;-63
2024/03/18 11:28:45;;;;;;;15.93;5.53;;;13.90;99.90;;;;;;5057978;28;20029;-63
2024/03/18 11:31:14;;;;;;;13.55;5.78;;;13.80;99.90;;;;;;5052305;28;20040;-63
2024/03/18 11:33:40;;;;;;;12.95;5.50;;;13.80;99.90;;;;;;5059533;28;20115;-62
2024/03/18 11:36:08;;;;;;;12.75;6.13;;;13.80;99.90;;;;;;5060869;28;20472;-63
2024/03/18 11:38:35;;;;;;;15.90;5.68;;;13.70;99.90;;;;;;5058943;28;20018;-62
2024/03/18 11:41:02;;;;;;;10.60;4.43;;;13.60;99.90;;;;;;5060592;28;20055;-62
2024/03/18 11:43:30;;;;;;;17.88;5.80;;;13.50;99.90;;;;;;5060590;28;20020;-62
2024/03/18 11:45:57;;;;;;;15.00;5.13;;;13.40;99.90;;;;;;5056803;28;20083;-62
2024/03/18 11:48:23;;;;;;;14.93;6.13;;;13.30;99.90;;;;;;5056225;28;20111;-61
2024/03/18 11:50:48;;;;;;;17.45;6.13;;;13.40;99.90;;;;;;5059514;28;20111;-61
2024/03/18 11:53:17;;;;;;;15.68;6.38;;;13.60;99.90;;;;;;5057128;28;20074;-61
2024/03/18 11:55:43;;;;;;;15.52;6.03;;;13.90;99.90;;;;;;5059666;28;20103;-61
2024/03/18 11:58:12;;;;;;;14.40;5.65;;;14.30;99.90;;;;;;5057916;28;20108;-61
2024/03/18 12:00:38;;;;;;;13.55;5.90;;;14.80;99.90;;;;;;5060990;28;20142;-61
2024/03/18 12:03:11;;;;;;;13.10;5.60;;;15.20;99.90;;;;;;5058609;28;20131;-61
2024/03/18 12:05:39;;;;;;;12.63;5.32;;;15.90;99.90;;;;;;5059243;28;20140;-60
2024/03/18 12:08:07;;;;;;;13.68;4.90;;;16.60;99.90;;;;;;5057993;28;20021;-61
2024/03/18 12:10:34;;;;;;;13.10;5.35;;;17.20;99.90;;;;;;5058312;28;20072;-61
2024/03/18 12:13:00;;;;;;;14.27;5.00;;;17.30;99.90;;;;;;5059066;28;20278;-61
2024/03/18 12:15:27;;;;;;;12.98;5.15;;;17.30;99.90;;;;;;5057087;28;20424;-61
2024/03/18 12:17:52;;;;;;;11.73;4.90;;;17.10;99.90;;;;;;5057360;28;20040;-61
2024/03/18 12:20:22;;;;;;;12.48;5.85;;;16.80;99.90;;;;;;5055929;28;20081;-61
2024/03/18 12:23:05;;;;;;;15.65;4.93;;;16.60;99.90;;;;;;5057928;28;20021;-61
2024/03/18 12:28:36;;;;;;;15.52;5.65;;;16.00;99.90;;;;;;5057211;28;20081;-61
2024/03/18 12:31:05;;;;;;;13.05;5.57;;;16.00;99.90;;;;;;5060927;28;20074;-61
2024/03/18 12:33:34;;;;;;;13.90;6.18;;;16.00;99.90;;;;;;5057874;28;20029;-61
2024/03/18 12:36:08;;;;;;;12.60;5.78;;;15.80;99.90;;;;;;5058711;28;20042;-61
2024/03/18 12:38:38;;;;;;;15.50;5.95;;;15.70;99.90;;;;;;5057321;28;20237;-61
2024/03/18 12:41:05;;;;;;;11.52;5.15;;;15.70;99.90;;;;;;5057679;28;20487;-61
2024/03/18 12:43:31;;;;;;;12.50;5.80;;;15.80;99.90;;;;;;5058316;28;20024;-60
2024/03/18 12:45:59;;;;;;;13.50;5.50;;;16.20;99.90;;;;;;5058213;28;20506;-61
2024/03/18 12:48:25;;;;;;;14.00;6.30;;;16.60;99.90;;;;;;5057353;28;20548;-61